TAF LFQQ 291100Z 2912/3018 16010KT 9999 SCT040 BECMG 2913/2915 10010KT BECMG 3008/3011 15017G27KT BECMG 3016/3018 15012KT

Share This